Time;durP1;ratioP1;P1;durP2;ratioP2;P2;SDS_P1;SDS_P2;PMS_P1;PMS_P2;Temp;Humidity;BMP_temperature;BMP_pressure;BME280_temperature;BME280_humidity;BME280_pressure;Samples;Min_cycle;Max_cycle;Signal;HPM_P1;HPM_P2
2019/06/20 00:00:22;;;;;;;5.3;1.5;;;;;;;31.75;32.74023;998.634;;;;
2019/06/20 00:02:48;;;;;;;4.1;1.4;;;;;;;31.74;32.92383;998.6248;;;;
2019/06/20 00:06:07;;;;;;;6.2;1.5;;;;;;;31.72;32.95898;998.5391;;;;
2019/06/20 00:08:32;;;;;;;2.5;1.4;;;;;;;31.71;33.00879;998.4455;;;;
2019/06/20 00:10:58;;;;;;;3.2;1.3;;;;;;;31.71;32.9834;998.4331;;;;
2019/06/20 00:19:39;;;;;;;4.7;1.5;;;;;;;31.7;33.04395;998.2711;;;;
2019/06/20 00:22:04;;;;;;;4.3;1.3;;;;;;;31.69;33.05664;998.2392;;;;
2019/06/20 00:24:29;;;;;;;3.8;1.5;;;;;;;31.7;32.98242;998.1699;;;;
2019/06/20 00:26:55;;;;;;;5.5;1.4;;;;;;;31.71;32.95898;998.0948;;;;
2019/06/20 00:29:20;;;;;;;3.4;1.3;;;;;;;31.72;32.97168;998.1486;;;;
2019/06/20 00:31:45;;;;;;;2.8;1.3;;;;;;;31.71;32.93359;998.1476;;;;
2019/06/20 00:35:04;;;;;;;3.2;1.3;;;;;;;31.72;33.00879;998.1921;;;;
2019/06/20 00:37:30;;;;;;;3.7;1.4;;;;;;;31.71;33.04492;998.147;;;;
2019/06/20 00:39:56;;;;;;;3.8;1;;;;;;;31.71;33.04492;998.1766;;;;
2019/06/20 00:40:39;;;;;;;3.3;1.3;;;;;;;31.71;33.06934;998.1675;;;;
2019/06/20 00:41:31;;;;;;;3.7;1.3;;;;;;;31.71;33.10645;998.216;;;;
2019/06/20 00:44:50;;;;;;;4.4;1.2;;;;;;;31.7;33.09277;998.225;;;;
2019/06/20 00:47:15;;;;;;;3.9;1.4;;;;;;;31.7;33.08105;998.2784;;;;
2019/06/20 00:50:34;;;;;;;2;1.1;;;;;;;31.71;33.04492;998.3505;;;;
2019/06/20 00:53:00;;;;;;;3.2;1.4;;;;;;;31.71;33.03223;998.3139;;;;
2019/06/20 00:55:25;;;;;;;4.7;1.3;;;;;;;31.71;32.94629;998.3521;;;;
2019/06/20 00:57:50;;;;;;;2.3;1;;;;;;;31.71;32.9707;998.4208;;;;
2019/06/20 01:00:16;;;;;;;5.1;1.2;;;;;;;31.7;32.9707;998.4261;;;;
2019/06/20 01:03:35;;;;;;;1.9;1.1;;;;;;;31.71;32.88574;998.4471;;;;
2019/06/20 01:04:24;;;;;;;2.4;1.2;;;;;;;31.72;32.86133;998.4677;;;;
2019/06/20 01:06:49;;;;;;;2.3;1.3;;;;;;;31.73;32.82422;998.4487;;;;
2019/06/20 01:09:14;;;;;;;4;1.3;;;;;;;31.72;32.83691;998.4807;;;;
2019/06/20 01:11:39;;;;;;;2.1;1.1;;;;;;;31.72;32.8125;998.4524;;;;
2019/06/20 01:14:04;;;;;;;3.6;1.4;;;;;;;31.72;32.78809;998.479;;;;
2019/06/20 01:16:30;;;;;;;3.3;1.3;;;;;;;31.72;32.7627;998.4428;;;;
2019/06/20 01:18:55;;;;;;;2.1;1.3;;;;;;;31.71;32.76172;998.4706;;;;
2019/06/20 01:21:20;;;;;;;2;1.2;;;;;;;31.71;32.76172;998.5022;;;;
2019/06/20 01:23:45;;;;;;;3.1;1.4;;;;;;;31.7;32.78613;998.5142;;;;
2019/06/20 01:26:11;;;;;;;2.2;1.2;;;;;;;31.7;32.82227;998.5151;;;;
2019/06/20 01:28:36;;;;;;;2.9;1.2;;;;;;;31.7;32.88379;998.5593;;;;
2019/06/20 01:31:55;;;;;;;4.5;1.2;;;;;;;31.69;32.98145;998.5709;;;;
2019/06/20 01:34:20;;;;;;;3.1;1.1;;;;;;;31.69;33.06738;998.5627;;;;
2019/06/20 01:36:45;;;;;;;1.5;1.1;;;;;;;31.68;33.09082;998.5018;;;;
2019/06/20 01:39:11;;;;;;;1.8;1.2;;;;;;;31.68;33.00586;998.4839;;;;
2019/06/20 01:41:36;;;;;;;2.8;1.1;;;;;;;31.68;33.0918;998.445;;;;
2019/06/20 01:42:16;;;;;;;2.9;1.1;;;;;;;31.68;33.14063;998.4238;;;;
2019/06/20 01:45:36;;;;;;;1.9;1;;;;;;;31.67;33.17676;998.459;;;;
2019/06/20 01:45:43;;;;;;;3;1.2;;;;;;;31.66;33.17676;998.4252;;;;
2019/06/20 01:48:08;;;;;;;2.1;1;;;;;;;31.65;33.1875;998.4241;;;;
2019/06/20 01:50:34;;;;;;;2.5;1.1;;;;;;;31.65;33.17578;998.3959;;;;
2019/06/20 01:53:54;;;;;;;2.6;1.1;;;;;;;31.64;33.2002;998.375;;;;
2019/06/20 01:56:20;;;;;;;2.7;1.2;;;;;;;31.65;33.2002;998.4205;;;;
2019/06/20 01:58:45;;;;;;;2.4;1.1;;;;;;;31.64;33.2002;998.4407;;;;
2019/06/20 01:59:17;;;;;;;1.6;1;;;;;;;31.65;33.16309;998.4553;;;;
2019/06/20 02:01:42;;;;;;;1.9;1.1;;;;;;;31.64;33.1875;998.4695;;;;
2019/06/20 02:04:08;;;;;;;2.7;1;;;;;;;31.64;33.1875;998.5028;;;;
2019/06/20 02:06:33;;;;;;;2;1;;;;;;;31.64;33.19922;998.4891;;;;
2019/06/20 02:08:58;;;;;;;2.4;1.3;;;;;;;31.63;33.21094;998.4944;;;;
2019/06/20 02:11:24;;;;;;;2.9;1.1;;;;;;;31.62;33.22168;998.517;;;;
2019/06/20 02:13:49;;;;;;;1.9;1;;;;;;;31.62;33.20996;998.5193;;;;
2019/06/20 02:16:14;;;;;;;2.3;1.1;;;;;;;31.6;33.24609;998.45;;;;
2019/06/20 02:16:57;;;;;;;2.4;1.1;;;;;;;31.59;33.25781;998.4568;;;;
2019/06/20 02:19:22;;;;;;;1.9;1;;;;;;;31.59;33.24414;998.4399;;;;
2019/06/20 02:21:47;;;;;;;1.8;0.9;;;;;;;31.59;33.26953;998.5063;;;;
2019/06/20 02:25:07;;;;;;;2.2;0.9;;;;;;;31.59;33.34277;998.6092;;;;
2019/06/20 02:25:27;;;;;;;2;1.1;;;;;;;31.58;33.34277;998.6185;;;;
2019/06/20 02:27:52;;;;;;;3.2;1.1;;;;;;;31.58;33.3418;998.58;;;;
2019/06/20 02:30:18;;;;;;;2.8;1;;;;;;;31.56;33.37793;998.6331;;;;
2019/06/20 02:32:43;;;;;;;2;1.1;;;;;;;31.56;33.41504;998.6828;;;;
2019/06/20 02:35:08;;;;;;;3.1;1.4;;;;;;;31.56;33.43945;998.7227;;;;
2019/06/20 02:37:34;;;;;;;2.1;1;;;;;;;31.56;33.45117;998.8322;;;;
2019/06/20 02:39:59;;;;;;;2.3;1.4;;;;;;;31.56;33.50098;998.8113;;;;
2019/06/20 02:42:24;;;;;;;3;1.2;;;;;;;31.55;33.5127;998.868;;;;
2019/06/20 02:44:50;;;;;;;2.7;1.1;;;;;;;31.54;33.57227;998.7986;;;;
2019/06/20 02:48:09;;;;;;;3;1.5;;;;;;;31.54;33.57324;998.9228;;;;
2019/06/20 02:50:34;;;;;;;2.3;1.3;;;;;;;31.54;33.59668;998.9728;;;;
2019/06/20 02:53:00;;;;;;;2;1.1;;;;;;;31.53;33.64551;998.9901;;;;
2019/06/20 02:56:19;;;;;;;1.4;1;;;;;;;31.51;33.66992;999.0415;;;;
2019/06/20 02:58:44;;;;;;;1.6;1.1;;;;;;;31.51;33.68164;999.0856;;;;
2019/06/20 03:01:09;;;;;;;2.1;1.1;;;;;;;31.51;33.69336;999.0502;;;;
2019/06/20 03:03:35;;;;;;;2;1.3;;;;;;;31.52;33.71973;999.0502;;;;
2019/06/20 03:06:01;;;;;;;3.4;1.1;;;;;;;31.51;33.74316;999.0399;;;;
2019/06/20 03:08:26;;;;;;;2.4;1.1;;;;;;;31.51;33.76758;999.0319;;;;
2019/06/20 03:10:51;;;;;;;2.5;1.2;;;;;;;31.51;33.78027;999.0366;;;;
2019/06/20 03:10:57;;;;;;;2.9;1.3;;;;;;;31.51;33.78027;999.0581;;;;
2019/06/20 03:13:22;;;;;;;2.3;1.2;;;;;;;31.51;33.81641;999.1125;;;;
2019/06/20 03:15:47;;;;;;;2.4;1.2;;;;;;;31.49;33.85156;999.15;;;;
2019/06/20 03:16:01;;;;;;;2.9;1.1;;;;;;;31.49;33.85254;999.139;;;;
2019/06/20 03:19:20;;;;;;;3.5;1.2;;;;;;;31.48;33.86328;999.1396;;;;
2019/06/20 03:21:47;;;;;;;2.4;1;;;;;;;31.49;33.88867;999.1152;;;;
2019/06/20 03:24:13;;;;;;;4.4;1.5;;;;;;;31.49;33.9248;999.0756;;;;
2019/06/20 03:26:38;;;;;;;3.6;0.9;;;;;;;31.49;33.9248;999.0872;;;;
2019/06/20 03:27:02;;;;;;;5.4;1.2;;;;;;;31.49;33.90137;999.0862;;;;
2019/06/20 03:29:28;;;;;;;2.3;1.1;;;;;;;31.48;33.9248;999.1722;;;;
2019/06/20 03:29:36;;;;;;;2.2;1;;;;;;;31.49;33.91309;999.1951;;;;
2019/06/20 03:32:02;;;;;;;2.3;1.2;;;;;;;31.48;33.9248;999.2491;;;;
2019/06/20 03:34:27;;;;;;;2.3;1.3;;;;;;;31.48;33.97363;999.2767;;;;
2019/06/20 03:36:52;;;;;;;2.3;1.2;;;;;;;31.49;33.9502;999.3292;;;;
2019/06/20 03:39:18;;;;;;;4.3;1.2;;;;;;;31.5;33.95117;999.3578;;;;
2019/06/20 03:42:37;;;;;;;2.4;1.1;;;;;;;31.48;33.98633;999.3621;;;;
2019/06/20 03:45:02;;;;;;;2.6;1;;;;;;;31.48;34.02344;999.3467;;;;
2019/06/20 03:47:28;;;;;;;1.9;1.2;;;;;;;31.48;34.04785;999.3391;;;;
2019/06/20 03:49:53;;;;;;;3.7;1.2;;;;;;;31.49;34.01172;999.3817;;;;
2019/06/20 03:52:18;;;;;;;2.9;1.4;;;;;;;31.5;34.03711;999.3654;;;;
2019/06/20 03:52:23;;;;;;;4.1;1.4;;;;;;;31.5;34.03711;999.3744;;;;
2019/06/20 03:54:48;;;;;;;2.4;1.3;;;;;;;31.48;34.08496;999.3488;;;;
2019/06/20 03:57:13;;;;;;;2.2;1.1;;;;;;;31.49;34.06055;999.3145;;;;
2019/06/20 03:59:38;;;;;;;3.1;1.2;;;;;;;31.5;34.02441;999.3428;;;;
2019/06/20 04:02:04;;;;;;;1.9;1.3;;;;;;;31.51;34.07422;999.3133;;;;
2019/06/20 04:04:29;;;;;;;3.3;1.1;;;;;;;31.51;34.09863;999.2957;;;;
2019/06/20 04:07:48;;;;;;;3.1;1.2;;;;;;;31.51;34.11133;999.3167;;;;
2019/06/20 04:11:07;;;;;;;2.3;1.1;;;;;;;31.51;34.16016;999.2575;;;;
2019/06/20 04:13:32;;;;;;;1.7;1.2;;;;;;;31.5;34.20996;999.1832;;;;
2019/06/20 04:15:58;;;;;;;3.4;1.1;;;;;;;31.49;34.26953;999.1858;;;;
2019/06/20 04:18:23;;;;;;;1.9;1.2;;;;;;;31.49;34.24512;999.2156;;;;
2019/06/20 04:20:49;;;;;;;2.6;1.2;;;;;;;31.49;34.30566;999.2366;;;;
2019/06/20 04:23:14;;;;;;;3;1.7;;;;;;;31.49;34.40527;999.2131;;;;
2019/06/20 04:25:39;;;;;;;2.8;1.3;;;;;;;31.48;34.45313;999.226;;;;
2019/06/20 04:28:05;;;;;;;3.3;1.2;;;;;;;31.48;34.53906;999.2106;;;;
2019/06/20 04:30:30;;;;;;;2.3;1.1;;;;;;;31.48;34.51465;999.2346;;;;
2019/06/20 04:32:55;;;;;;;2;1.2;;;;;;;31.47;34.6123;999.2302;;;;
2019/06/20 04:38:02;;;;;;;2.1;1.3;;;;;;;31.47;34.64941;999.2319;;;;
2019/06/20 04:40:28;;;;;;;2.8;1.2;;;;;;;31.47;34.64844;999.2478;;;;
2019/06/20 04:42:53;;;;;;;2.8;1.3;;;;;;;31.47;34.66113;999.265;;;;
2019/06/20 04:45:35;;;;;;;2.6;1.5;;;;;;;31.47;34.67383;999.332;;;;
2019/06/20 04:47:46;;;;;;;3.7;1.2;;;;;;;31.47;34.69824;999.3513;;;;
2019/06/20 04:51:06;;;;;;;5.1;1.1;;;;;;;31.47;34.75977;999.3497;;;;
2019/06/20 04:53:31;;;;;;;4.1;1.3;;;;;;;31.46;34.73438;999.3417;;;;
2019/06/20 04:54:00;;;;;;;3.1;1.3;;;;;;;31.46;34.69727;999.3583;;;;
2019/06/20 04:57:18;;;;;;;2;1;;;;;;;31.47;34.73535;999.3975;;;;
2019/06/20 04:59:44;;;;;;;2.8;1.4;;;;;;;31.48;34.74805;999.3932;;;;
2019/06/20 05:02:09;;;;;;;2.7;1.5;;;;;;;31.48;34.76074;999.3932;;;;
2019/06/20 05:04:35;;;;;;;3.1;1.3;;;;;;;31.48;34.72363;999.4337;;;;
2019/06/20 05:07:00;;;;;;;3.6;1.3;;;;;;;31.48;34.74805;999.4221;;;;
2019/06/20 05:09:27;;;;;;;2.3;1.4;;;;;;;31.48;34.73633;999.377;;;;
2019/06/20 05:11:52;;;;;;;3.4;1.3;;;;;;;31.48;34.69922;999.4012;;;;
2019/06/20 05:14:17;;;;;;;4.2;1.5;;;;;;;31.49;34.7002;999.3624;;;;
2019/06/20 05:16:43;;;;;;;3.2;1.2;;;;;;;31.49;34.7002;999.3773;;;;
2019/06/20 05:19:08;;;;;;;2;1.2;;;;;;;31.5;34.67676;999.3674;;;;
2019/06/20 05:21:34;;;;;;;2.3;1.3;;;;;;;31.51;34.70215;999.3867;;;;
2019/06/20 05:23:59;;;;;;;2.8;1.1;;;;;;;31.53;34.66602;999.4372;;;;
2019/06/20 05:26:25;;;;;;;4.9;1.3;;;;;;;31.54;34.72754;999.4293;;;;
2019/06/20 05:28:50;;;;;;;3.2;1.2;;;;;;;31.55;34.7041;999.4135;;;;
2019/06/20 05:31:15;;;;;;;3.5;1.3;;;;;;;31.57;34.6084;999.4308;;;;
2019/06/20 05:33:41;;;;;;;3.4;1.2;;;;;;;31.61;34.5;999.4528;;;;
2019/06/20 05:37:00;;;;;;;2.4;1.3;;;;;;;31.64;34.47852;999.4158;;;;
2019/06/20 05:39:25;;;;;;;2.8;1.1;;;;;;;31.66;34.4541;999.4589;;;;
2019/06/20 05:41:50;;;;;;;5.2;1.5;;;;;;;31.68;34.49219;999.4902;;;;
2019/06/20 05:44:15;;;;;;;2.1;1.2;;;;;;;31.69;34.53125;999.5025;;;;
2019/06/20 05:47:34;;;;;;;4;1.2;;;;;;;31.71;34.49512;999.5165;;;;
2019/06/20 05:50:53;;;;;;;2.5;1.3;;;;;;;31.72;34.58203;999.5583;;;;
2019/06/20 05:54:12;;;;;;;2.5;1.2;;;;;;;31.73;34.52148;999.5535;;;;
2019/06/20 05:57:00;;;;;;;3.7;1.4;;;;;;;31.59;34.80566;999.5457;;;;
2019/06/20 05:59:25;;;;;;;2.8;1.5;;;;;;;31.39;35.14648;999.5641;;;;
2019/06/20 06:01:50;;;;;;;2.1;1.3;;;;;;;31.21;35.58789;999.5808;;;;
2019/06/20 06:04:16;;;;;;;3.5;1.4;;;;;;;31.08;35.87207;999.6284;;;;
2019/06/20 06:06:41;;;;;;;2.9;1.1;;;;;;;30.96;36.07031;999.6284;;;;
2019/06/20 06:09:07;;;;;;;2.1;1.2;;;;;;;30.88;36.45605;999.663;;;;
2019/06/20 06:11:32;;;;;;;3;1.4;;;;;;;30.8;36.53613;999.6769;;;;
2019/06/20 06:13:57;;;;;;;3.3;1.5;;;;;;;30.74;36.8252;999.6679;;;;
2019/06/20 06:16:22;;;;;;;3.7;1.4;;;;;;;30.7;36.83496;999.7028;;;;
2019/06/20 06:18:48;;;;;;;3.8;1.3;;;;;;;30.66;36.81934;999.7057;;;;
2019/06/20 06:21:13;;;;;;;5.4;1.4;;;;;;;30.64;37.05078;999.7244;;;;
2019/06/20 06:23:38;;;;;;;1.9;1.2;;;;;;;30.62;37.11035;999.7637;;;;
2019/06/20 06:26:04;;;;;;;4;1.6;;;;;;;30.59;37.14551;999.7708;;;;
2019/06/20 06:28:29;;;;;;;3.3;1.5;;;;;;;30.57;37.15625;999.7213;;;;
2019/06/20 06:30:54;;;;;;;4.7;1.4;;;;;;;30.57;37.20508;999.7561;;;;
2019/06/20 06:33:20;;;;;;;3.8;1.5;;;;;;;30.57;37.29004;999.7555;;;;
2019/06/20 06:35:45;;;;;;;5;1.6;;;;;;;30.57;37.31445;999.7339;;;;
2019/06/20 06:38:10;;;;;;;2.3;1.3;;;;;;;30.58;37.27832;999.6888;;;;
2019/06/20 06:40:36;;;;;;;4.2;1.5;;;;;;;30.58;37.29102;999.6653;;;;
2019/06/20 06:43:01;;;;;;;3.2;1.5;;;;;;;30.6;37.37891;999.6642;;;;
2019/06/20 06:45:26;;;;;;;3.3;1.4;;;;;;;30.61;37.35449;999.6785;;;;
2019/06/20 06:48:45;;;;;;;2;1.3;;;;;;;30.66;37.29688;999.7117;;;;
2019/06/20 06:51:11;;;;;;;3.6;1.3;;;;;;;30.65;37.26074;999.7467;;;;
2019/06/20 06:53:36;;;;;;;4.2;1.3;;;;;;;30.65;37.28516;999.7186;;;;
2019/06/20 06:56:55;;;;;;;4.5;1.5;;;;;;;30.69;37.38574;999.6884;;;;
2019/06/20 06:57:41;;;;;;;2.9;1.5;;;;;;;30.7;37.3877;999.6998;;;;
2019/06/20 07:00:06;;;;;;;2.8;1.5;;;;;;;30.72;37.35254;999.7029;;;;
2019/06/20 07:02:31;;;;;;;4.3;1.3;;;;;;;30.72;37.47461;999.7112;;;;
2019/06/20 07:04:57;;;;;;;3.1;1.6;;;;;;;30.72;37.47461;999.7169;;;;
2019/06/20 07:07:22;;;;;;;4.2;1.6;;;;;;;30.73;37.54883;999.7083;;;;
2019/06/20 07:09:47;;;;;;;3.3;1.4;;;;;;;30.72;37.53516;999.6982;;;;
2019/06/20 07:13:06;;;;;;;4.2;1.5;;;;;;;30.75;37.52637;999.6653;;;;
2019/06/20 07:15:31;;;;;;;4.6;1.4;;;;;;;30.77;37.52637;999.6365;;;;
2019/06/20 07:17:58;;;;;;;4.2;1.3;;;;;;;30.76;37.55176;999.6435;;;;
2019/06/20 07:20:22;;;;;;;2.5;1.4;;;;;;;30.77;37.60156;999.677;;;;
2019/06/20 07:22:47;;;;;;;3.1;1.3;;;;;;;30.77;37.57617;999.7234;;;;
2019/06/20 07:26:06;;;;;;;3.2;1.4;;;;;;;30.79;37.59082;999.7081;;;;
2019/06/20 07:28:32;;;;;;;2.2;1.3;;;;;;;30.81;37.56738;999.7453;;;;
2019/06/20 07:30:57;;;;;;;2.7;1.4;;;;;;;30.8;37.55469;999.7598;;;;
2019/06/20 07:33:22;;;;;;;3.8;1.4;;;;;;;30.79;37.55469;999.7369;;;;
2019/06/20 07:35:47;;;;;;;3.3;1.5;;;;;;;30.8;37.54297;999.7838;;;;
2019/06/20 07:38:13;;;;;;;4.1;1.5;;;;;;;30.82;37.53223;999.7994;;;;
2019/06/20 07:40:38;;;;;;;3.5;1.5;;;;;;;30.82;37.53223;999.8022;;;;
2019/06/20 07:43:57;;;;;;;4.3;1.5;;;;;;;30.87;37.4248;999.8691;;;;
2019/06/20 07:46:22;;;;;;;2.9;1.4;;;;;;;30.88;37.40137;999.8228;;;;
2019/06/20 07:48:48;;;;;;;2;1.3;;;;;;;30.88;37.35254;999.827;;;;
2019/06/20 07:52:07;;;;;;;3.3;1.6;;;;;;;30.9;37.30566;999.7305;;;;
2019/06/20 07:54:32;;;;;;;2.3;1.4;;;;;;;30.88;37.30371;999.7645;;;;
2019/06/20 07:56:58;;;;;;;2.7;1.3;;;;;;;30.88;37.31543;999.7076;;;;
2019/06/20 07:59:23;;;;;;;5;1.6;;;;;;;30.86;37.37598;999.7159;;;;
2019/06/20 08:02:42;;;;;;;5.1;1.3;;;;;;;30.88;37.30371;999.7014;;;;
2019/06/20 08:05:07;;;;;;;2.3;1.6;;;;;;;30.91;37.23242;999.6993;;;;
2019/06/20 08:07:33;;;;;;;3.3;1.4;;;;;;;30.92;37.22168;999.7001;;;;
2019/06/20 08:10:51;;;;;;;5.1;1.5;;;;;;;30.96;37.13867;999.6462;;;;
2019/06/20 08:13:17;;;;;;;3.6;1.4;;;;;;;30.97;37.12695;999.641;;;;
2019/06/20 08:15:42;;;;;;;3.9;1.5;;;;;;;30.97;37.08984;999.5992;;;;
2019/06/20 08:18:07;;;;;;;2.6;1.4;;;;;;;30.98;37.11523;999.6295;;;;
2019/06/20 08:20:32;;;;;;;2.9;1.4;;;;;;;30.98;37.13965;999.6616;;;;
2019/06/20 08:22:57;;;;;;;3.1;1.6;;;;;;;30.99;37.14063;999.6531;;;;
2019/06/20 08:25:22;;;;;;;1.6;1.3;;;;;;;31.01;37.14258;999.6708;;;;
2019/06/20 08:27:51;;;;;;;4;1.3;;;;;;;31.01;37.14258;999.6959;;;;
2019/06/20 08:30:13;;;;;;;2.4;1.3;;;;;;;31.02;37.11816;999.7286;;;;
2019/06/20 08:32:38;;;;;;;2.7;1.3;;;;;;;31.03;37.10645;999.6998;;;;
2019/06/20 08:35:03;;;;;;;3.2;1.4;;;;;;;31.02;37.08203;999.6692;;;;
2019/06/20 08:37:29;;;;;;;2.4;1.5;;;;;;;31.02;37.10645;999.7209;;;;
2019/06/20 08:39:54;;;;;;;1.9;1.3;;;;;;;31.01;37.09375;999.6699;;;;
2019/06/20 08:40:25;;;;;;;3.7;1.4;;;;;;;31.02;37.10645;999.692;;;;
2019/06/20 08:42:51;;;;;;;4.2;1.7;;;;;;;31.01;37.10645;999.6632;;;;
2019/06/20 08:45:16;;;;;;;4.3;1.5;;;;;;;31.01;37.08105;999.7056;;;;
2019/06/20 08:47:41;;;;;;;3.1;1.4;;;;;;;31.01;37.09375;999.6801;;;;
2019/06/20 08:50:07;;;;;;;3.4;1.3;;;;;;;31;37.10547;999.6581;;;;
2019/06/20 08:52:32;;;;;;;2.5;1.4;;;;;;;31;37.10449;999.5911;;;;
2019/06/20 08:54:57;;;;;;;2.7;1.5;;;;;;;30.99;37.11523;999.6292;;;;
2019/06/20 08:57:22;;;;;;;2.7;1.4;;;;;;;31.01;37.08105;999.6194;;;;
2019/06/20 08:59:47;;;;;;;4.5;1.7;;;;;;;31.02;37.04492;999.5681;;;;
2019/06/20 09:02:13;;;;;;;3.9;1.4;;;;;;;31.03;37.07031;999.5886;;;;
2019/06/20 09:04:38;;;;;;;2.9;1.4;;;;;;;31.02;37.05762;999.5126;;;;
2019/06/20 09:07:04;;;;;;;3.3;1.6;;;;;;;31.02;37.07031;999.5217;;;;
2019/06/20 09:09:29;;;;;;;3.3;1.4;;;;;;;31.02;37.05762;999.5647;;;;
2019/06/20 09:11:54;;;;;;;4.2;1.8;;;;;;;31.02;37.04492;999.5382;;;;
2019/06/20 09:14:19;;;;;;;4.1;1.4;;;;;;;31.03;37.03418;999.5179;;;;
2019/06/20 09:16:45;;;;;;;2.8;1.5;;;;;;;31.02;37.00879;999.579;;;;
2019/06/20 09:19:10;;;;;;;3.4;1.7;;;;;;;31.02;36.9707;999.6512;;;;
2019/06/20 09:19:54;;;;;;;3.2;1.3;;;;;;;31.02;36.95898;999.6364;;;;
2019/06/20 09:22:19;;;;;;;3;1.3;;;;;;;31.03;36.89844;999.6215;;;;
2019/06/20 09:24:44;;;;;;;3.3;1.3;;;;;;;31.04;36.85059;999.6766;;;;
2019/06/20 09:27:09;;;;;;;2.7;1.4;;;;;;;31.03;36.84863;999.6649;;;;
2019/06/20 09:29:35;;;;;;;2.2;1.2;;;;;;;31.02;36.84863;999.7076;;;;
2019/06/20 09:32:01;;;;;;;2.6;1.3;;;;;;;31.02;36.83594;999.7342;;;;
2019/06/20 09:34:26;;;;;;;4;1.3;;;;;;;31.01;36.83594;999.7313;;;;
2019/06/20 09:36:51;;;;;;;2.2;1.4;;;;;;;31.01;36.85938;999.7408;;;;
2019/06/20 09:39:17;;;;;;;2.3;1.4;;;;;;;31;36.89551;999.758;;;;
2019/06/20 09:41:42;;;;;;;3.1;1.5;;;;;;;30.99;36.93164;999.8013;;;;
2019/06/20 09:45:01;;;;;;;3.4;1.3;;;;;;;31;36.9209;999.8027;;;;
2019/06/20 09:47:27;;;;;;;2.7;1.4;;;;;;;30.99;36.93164;999.7609;;;;
2019/06/20 09:49:52;;;;;;;2.4;1.5;;;;;;;30.99;36.95605;999.795;;;;
2019/06/20 09:52:17;;;;;;;2.4;1.3;;;;;;;30.98;36.99316;999.7972;;;;
2019/06/20 09:56:30;;;;;;;2.4;1.3;;;;;;;31.04;36.83789;999.7065;;;;
2019/06/20 09:57:01;;;;;;;1.8;1.2;;;;;;;31.05;36.83887;999.7417;;;;
2019/06/20 09:59:27;;;;;;;2.6;1.5;;;;;;;31.06;36.77832;999.7068;;;;
2019/06/20 10:01:52;;;;;;;3.7;1.2;;;;;;;31.04;36.77637;999.733;;;;
2019/06/20 10:04:17;;;;;;;2.8;1.4;;;;;;;31.02;36.7998;999.6941;;;;
2019/06/20 10:06:42;;;;;;;3.8;1.6;;;;;;;31.01;36.78711;999.6956;;;;
2019/06/20 10:09:08;;;;;;;2.4;1.4;;;;;;;31.01;36.71289;999.6694;;;;
2019/06/20 10:11:33;;;;;;;2.1;1.4;;;;;;;31;36.6748;999.611;;;;
2019/06/20 10:13:58;;;;;;;4;1.5;;;;;;;30.98;36.64941;999.6063;;;;
2019/06/20 10:16:24;;;;;;;2.7;1.4;;;;;;;30.97;36.64844;999.6526;;;;
2019/06/20 10:17:12;;;;;;;1.9;1.1;;;;;;;30.99;36.64941;999.6756;;;;
2019/06/20 10:19:37;;;;;;;2.9;1.5;;;;;;;31.01;36.55371;999.7693;;;;
2019/06/20 10:22:02;;;;;;;2.6;1.2;;;;;;;31.02;36.54102;999.8214;;;;
2019/06/20 10:24:27;;;;;;;3.2;1.3;;;;;;;31;36.55273;999.7244;;;;
2019/06/20 10:26:52;;;;;;;2.7;1.2;;;;;;;30.99;36.58887;999.595;;;;
2019/06/20 10:29:18;;;;;;;4.1;1.3;;;;;;;30.98;36.58789;999.5873;;;;
2019/06/20 10:31:43;;;;;;;2.4;1.4;;;;;;;30.97;36.59961;999.6268;;;;
2019/06/20 10:34:08;;;;;;;4;1.3;;;;;;;30.96;36.62305;999.6638;;;;
2019/06/20 10:36:33;;;;;;;3.6;1.4;;;;;;;30.96;36.63477;999.7842;;;;
2019/06/20 10:38:59;;;;;;;2.4;1.3;;;;;;;30.96;36.62207;999.8406;;;;
2019/06/20 10:41:24;;;;;;;2;1.2;;;;;;;30.96;36.62207;999.9079;;;;
2019/06/20 10:43:50;;;;;;;3.9;1.2;;;;;;;30.94;36.62207;999.8531;;;;
2019/06/20 10:46:15;;;;;;;3.5;1.4;;;;;;;30.94;36.62207;999.8192;;;;
2019/06/20 10:49:34;;;;;;;2.6;1.2;;;;;;;30.95;36.61035;999.7722;;;;
2019/06/20 10:51:59;;;;;;;2.7;1.5;;;;;;;30.95;36.59766;999.8104;;;;
2019/06/20 10:54:25;;;;;;;2.7;1.3;;;;;;;30.94;36.63379;999.8995;;;;
2019/06/20 10:56:50;;;;;;;2.2;1.5;;;;;;;30.92;36.66895;999.8948;;;;
2019/06/20 11:00:12;;;;;;;2.2;1.2;;;;;;;30.96;36.61035;999.9647;;;;
2019/06/20 11:02:36;;;;;;;2.4;1.2;;;;;;;30.95;36.63477;999.9191;;;;
2019/06/20 11:05:02;;;;;;;2.9;1.4;;;;;;;30.93;36.68262;999.9539;;;;
2019/06/20 11:08:21;;;;;;;4.1;1.4;;;;;;;30.95;36.69629;999.9954;;;;
2019/06/20 11:10:46;;;;;;;1.8;1.2;;;;;;;30.93;36.85352;1000.058;;;;
2019/06/20 11:13:11;;;;;;;2.8;1.4;;;;;;;30.91;37;1000.036;;;;
2019/06/20 11:15:37;;;;;;;2.5;1.5;;;;;;;30.89;37.13379;1000.032;;;;
2019/06/20 11:18:57;;;;;;;3.1;1.5;;;;;;;30.92;37.40527;1000.106;;;;
2019/06/20 11:22:17;;;;;;;2.7;1.4;;;;;;;30.9;37.62402;1000.05;;;;
2019/06/20 11:24:42;;;;;;;3.4;1.5;;;;;;;30.9;37.68555;1000.1;;;;
2019/06/20 11:27:07;;;;;;;3.1;1.5;;;;;;;30.88;37.67188;1000.052;;;;
2019/06/20 11:29:33;;;;;;;3.2;1.5;;;;;;;30.87;37.84277;1000.042;;;;
2019/06/20 11:31:58;;;;;;;2;1.3;;;;;;;30.84;38.07422;1000.019;;;;
2019/06/20 11:34:23;;;;;;;4.1;1.4;;;;;;;30.84;38.31836;999.9903;;;;
2019/06/20 11:36:49;;;;;;;2.3;1.6;;;;;;;30.83;38.3291;999.9428;;;;
2019/06/20 11:40:08;;;;;;;3.1;1.4;;;;;;;30.85;38.35742;999.9586;;;;
2019/06/20 11:42:33;;;;;;;3.8;1.6;;;;;;;30.84;38.33105;999.9992;;;;
2019/06/20 11:43:11;;;;;;;4.1;1.6;;;;;;;30.84;38.30664;999.9501;;;;
2019/06/20 11:45:36;;;;;;;3.6;1.5;;;;;;;30.88;38.1748;999.971;;;;
2019/06/20 11:48:02;;;;;;;5;1.5;;;;;;;30.86;38.05078;999.8711;;;;
2019/06/20 11:50:27;;;;;;;3.3;1.5;;;;;;;30.84;38.09863;999.8192;;;;
2019/06/20 11:52:52;;;;;;;2.1;1.4;;;;;;;30.82;38.1084;999.7806;;;;
2019/06/20 11:55:17;;;;;;;2.1;1.3;;;;;;;30.82;38.04688;999.7679;;;;
2019/06/20 11:57:43;;;;;;;2.9;1.5;;;;;;;30.81;38.02148;999.7383;;;;
2019/06/20 12:01:02;;;;;;;2.3;1.4;;;;;;;30.79;37.94727;999.7253;;;;
2019/06/20 12:01:46;;;;;;;4.3;1.5;;;;;;;30.79;37.93457;999.7402;;;;
2019/06/20 12:04:11;;;;;;;4.4;1.3;;;;;;;30.81;37.84961;999.805;;;;
2019/06/20 12:06:36;;;;;;;2.5;1.4;;;;;;;30.79;37.77539;999.8264;;;;
2019/06/20 12:09:02;;;;;;;2.9;1.3;;;;;;;30.79;37.71387;999.7853;;;;
2019/06/20 12:11:27;;;;;;;2.1;1.1;;;;;;;30.79;37.70117;999.7605;;;;
2019/06/20 12:13:52;;;;;;;3;1.1;;;;;;;30.78;37.60156;999.7073;;;;
2019/06/20 12:16:18;;;;;;;3.1;1.2;;;;;;;30.77;37.58789;999.693;;;;
2019/06/20 12:18:43;;;;;;;3.5;1.2;;;;;;;30.76;37.52637;999.7603;;;;
2019/06/20 12:21:08;;;;;;;2.5;1.4;;;;;;;30.75;37.45313;999.7019;;;;
2019/06/20 12:23:33;;;;;;;2.6;1.1;;;;;;;30.74;37.43945;999.6122;;;;
2019/06/20 12:25:59;;;;;;;2.8;1.1;;;;;;;30.75;37.37891;999.7048;;;;
2019/06/20 12:28:24;;;;;;;2.2;1.1;;;;;;;30.73;37.32813;999.7296;;;;
2019/06/20 12:30:50;;;;;;;2.2;1;;;;;;;30.73;37.29199;999.772;;;;
2019/06/20 12:33:15;;;;;;;2.6;1.3;;;;;;;30.73;37.30371;999.7556;;;;
2019/06/20 12:35:40;;;;;;;1.6;0.9;;;;;;;30.73;37.24219;999.7623;;;;
2019/06/20 12:38:05;;;;;;;2.7;1.1;;;;;;;30.72;37.2168;999.7967;;;;
2019/06/20 12:40:31;;;;;;;2.9;1.1;;;;;;;30.72;37.17969;999.7745;;;;
2019/06/20 12:42:56;;;;;;;2;1.1;;;;;;;30.72;37.16797;999.7401;;;;
2019/06/20 12:45:21;;;;;;;2;1;;;;;;;30.72;37.16699;999.6617;;;;
2019/06/20 12:48:41;;;;;;;1.7;1.1;;;;;;;30.76;37.06055;999.5364;;;;
2019/06/20 12:51:06;;;;;;;2.8;1.1;;;;;;;30.76;37.08496;999.5201;;;;
2019/06/20 12:53:31;;;;;;;1.7;1.2;;;;;;;30.75;37.10938;999.5125;;;;
2019/06/20 12:55:57;;;;;;;2;1.2;;;;;;;30.73;37.16895;999.565;;;;
2019/06/20 12:56:22;;;;;;;1.6;1.1;;;;;;;30.73;37.14453;999.5681;;;;
2019/06/20 12:58:48;;;;;;;2.3;1.3;;;;;;;30.73;37.14453;999.6049;;;;
2019/06/20 13:01:13;;;;;;;1.9;1.1;;;;;;;30.72;37.15527;999.5656;;;;
2019/06/20 13:03:38;;;;;;;2.2;1.1;;;;;;;30.71;37.17871;999.5569;;;;
2019/06/20 13:06:04;;;;;;;2.2;1;;;;;;;30.7;37.16602;999.4697;;;;
2019/06/20 13:08:29;;;;;;;1.9;1.2;;;;;;;30.7;37.19043;999.5045;;;;
2019/06/20 13:10:54;;;;;;;2;1.2;;;;;;;30.7;37.19043;999.5012;;;;
2019/06/20 13:13:19;;;;;;;2.2;1;;;;;;;30.69;37.20117;999.4149;;;;
2019/06/20 13:15:45;;;;;;;2.6;1.1;;;;;;;30.7;37.21484;999.3934;;;;
2019/06/20 13:18:10;;;;;;;2.7;1.1;;;;;;;30.69;37.23926;999.2963;;;;
2019/06/20 13:20:36;;;;;;;2.3;1.2;;;;;;;30.68;37.23828;999.3098;;;;
2019/06/20 13:23:01;;;;;;;2.2;1.2;;;;;;;30.68;37.22559;999.3365;;;;
2019/06/20 13:25:26;;;;;;;2.3;1.2;;;;;;;30.68;37.23828;999.4079;;;;
2019/06/20 13:27:51;;;;;;;3.1;1.1;;;;;;;30.68;37.21387;999.4353;;;;
2019/06/20 13:30:16;;;;;;;2.1;1.1;;;;;;;30.67;37.2373;999.4201;;;;
2019/06/20 13:32:42;;;;;;;3.6;1.3;;;;;;;30.68;37.23828;999.4659;;;;
2019/06/20 13:35:07;;;;;;;1.7;1;;;;;;;30.68;37.22559;999.4486;;;;
2019/06/20 13:37:33;;;;;;;2.1;1.1;;;;;;;30.68;37.22559;999.4503;;;;
2019/06/20 13:39:58;;;;;;;3.2;1.2;;;;;;;30.67;37.28613;999.4897;;;;
2019/06/20 13:42:23;;;;;;;2.9;1.2;;;;;;;30.67;37.31152;999.5109;;;;
2019/06/20 13:44:49;;;;;;;1.8;1.1;;;;;;;30.68;37.27539;999.5651;;;;
2019/06/20 13:47:14;;;;;;;3.3;1.3;;;;;;;30.7;37.30078;999.532;;;;
2019/06/20 13:49:39;;;;;;;2.3;1.1;;;;;;;30.69;37.3252;999.519;;;;
2019/06/20 13:52:05;;;;;;;2.8;1.1;;;;;;;30.68;37.42188;999.5733;;;;
2019/06/20 13:54:30;;;;;;;1.6;1.1;;;;;;;30.68;37.38574;999.577;;;;
2019/06/20 13:56:55;;;;;;;1.5;1.1;;;;;;;30.67;37.40918;999.5699;;;;
2019/06/20 13:59:21;;;;;;;2;1.2;;;;;;;30.67;37.46973;999.5934;;;;
2019/06/20 14:01:46;;;;;;;3;1.2;;;;;;;30.67;37.4707;999.5609;;;;
2019/06/20 14:04:11;;;;;;;3.3;1.3;;;;;;;30.66;37.50586;999.5516;;;;
2019/06/20 14:06:37;;;;;;;2.1;1.3;;;;;;;30.65;37.53027;999.4989;;;;
2019/06/20 14:09:03;;;;;;;1.6;1;;;;;;;30.64;37.59082;999.4529;;;;
2019/06/20 14:12:21;;;;;;;1.6;1.1;;;;;;;30.67;37.53125;999.4161;;;;
2019/06/20 14:14:46;;;;;;;2.8;1.4;;;;;;;30.66;37.55566;999.3938;;;;
2019/06/20 14:17:11;;;;;;;2.5;1.2;;;;;;;30.67;37.59277;999.3677;;;;